Time;durP1;ratioP1;P1;durP2;ratioP2;P2;SDS_P1;SDS_P2;PMS_P1;PMS_P2;Temp;Humidity;BMP_temperature;BMP_pressure;BME280_temperature;BME280_humidity;BME280_pressure;Samples;Min_cycle;Max_cycle;Signal;HPM_P1;HPM_P2
2022/06/27 00:00:45;;;;;;;5.97;2.70;;;16.40;99.90;;;;;;4927656;29;20079;-85
2022/06/27 00:03:12;;;;;;;10.23;3.22;;;16.30;99.90;;;;;;4931569;29;20032;-84
2022/06/27 00:05:37;;;;;;;12.13;2.80;;;16.30;99.90;;;;;;4936772;29;20436;-84
2022/06/27 00:08:03;;;;;;;8.38;2.92;;;16.30;99.90;;;;;;4936014;29;20098;-84
2022/06/27 00:10:29;;;;;;;11.65;3.28;;;16.20;99.90;;;;;;4935164;29;20513;-85
2022/06/27 00:12:55;;;;;;;8.73;2.88;;;16.20;99.90;;;;;;4935176;29;20036;-84
2022/06/27 00:15:21;;;;;;;5.90;2.60;;;16.30;99.90;;;;;;4934689;29;20484;-84
2022/06/27 00:17:47;;;;;;;6.05;3.22;;;16.30;99.90;;;;;;4936333;29;20024;-84
2022/06/27 00:20:13;;;;;;;11.50;3.50;;;16.30;99.90;;;;;;4935887;29;20930;-85
2022/06/27 00:22:39;;;;;;;10.25;3.25;;;16.30;99.90;;;;;;4936302;29;20404;-84
2022/06/27 00:25:05;;;;;;;6.80;3.15;;;16.30;99.90;;;;;;4936068;29;20480;-85
2022/06/27 00:27:31;;;;;;;8.10;2.88;;;16.20;99.90;;;;;;4936317;29;20078;-85
2022/06/27 00:29:57;;;;;;;8.63;2.63;;;16.30;99.90;;;;;;4933805;29;20488;-84
2022/06/27 00:32:23;;;;;;;9.30;2.90;;;16.20;99.90;;;;;;4935984;29;20035;-85
2022/06/27 00:34:49;;;;;;;12.15;2.90;;;16.10;99.90;;;;;;4935996;29;20119;-84
2022/06/27 00:37:15;;;;;;;5.18;2.40;;;16.20;99.90;;;;;;4934732;29;20116;-84
2022/06/27 00:39:41;;;;;;;7.53;2.00;;;16.20;99.90;;;;;;4935741;29;20041;-84
2022/06/27 00:42:07;;;;;;;9.88;2.15;;;16.20;99.90;;;;;;4934379;29;20028;-84
2022/06/27 00:44:36;;;;;;;8.63;3.05;;;16.20;99.90;;;;;;4935452;29;20034;-84
2022/06/27 00:47:03;;;;;;;4.15;2.28;;;16.10;99.90;;;;;;4935598;29;20030;-84
2022/06/27 00:49:29;;;;;;;6.40;2.53;;;16.20;99.90;;;;;;4936223;29;20036;-85
2022/06/27 00:51:55;;;;;;;10.70;2.22;;;16.10;99.90;;;;;;4934115;29;20500;-84
2022/06/27 00:54:23;;;;;;;6.50;2.10;;;16.10;99.90;;;;;;4935134;29;20032;-85
2022/06/27 00:56:51;;;;;;;10.32;2.28;;;16.20;99.90;;;;;;4934456;29;20603;-84
2022/06/27 00:59:17;;;;;;;6.82;2.40;;;16.20;99.90;;;;;;4935572;29;20023;-84
2022/06/27 01:01:43;;;;;;;9.88;2.67;;;16.10;99.90;;;;;;4935452;29;20055;-84
2022/06/27 01:04:08;;;;;;;7.78;2.60;;;16.10;99.90;;;;;;4935486;29;20039;-85
2022/06/27 01:06:34;;;;;;;8.15;2.60;;;16.20;99.90;;;;;;4935859;29;20032;-84
2022/06/27 01:09:00;;;;;;;7.00;2.55;;;16.20;99.90;;;;;;4935168;29;20047;-84
2022/06/27 01:11:25;;;;;;;6.10;2.50;;;16.10;99.90;;;;;;4933401;29;20396;-84
2022/06/27 01:13:51;;;;;;;5.60;2.35;;;16.10;99.90;;;;;;4934679;29;20459;-84
2022/06/27 01:16:18;;;;;;;11.25;2.40;;;16.10;99.90;;;;;;4934773;29;20067;-84
2022/06/27 01:18:44;;;;;;;7.45;2.65;;;16.20;99.90;;;;;;4934335;29;20067;-84
2022/06/27 01:21:20;;;;;;;8.13;3.20;;;16.10;99.90;;;;;;4934987;29;20034;-84
2022/06/27 01:23:45;;;;;;;4.95;2.80;;;16.00;99.90;;;;;;4915265;29;20033;-84
2022/06/27 01:26:11;;;;;;;7.78;3.13;;;16.00;99.90;;;;;;4914402;29;20028;-84
2022/06/27 01:28:37;;;;;;;9.70;2.75;;;16.00;99.90;;;;;;4934721;29;20023;-85
2022/06/27 01:31:03;;;;;;;8.07;3.25;;;16.00;99.90;;;;;;4933858;29;20444;-84
2022/06/27 01:33:29;;;;;;;9.18;3.97;;;16.00;99.90;;;;;;4935154;29;20034;-85
2022/06/27 01:36:41;;;;;;;7.15;2.80;;;15.80;99.90;;;;;;4935270;29;20034;-84
2022/06/27 01:38:41;;;;;;;6.20;3.05;;;15.90;99.90;;;;;;4916207;29;20129;-84
2022/06/27 01:41:07;;;;;;;6.85;2.63;;;15.90;99.90;;;;;;4921192;29;20033;-84
2022/06/27 01:43:34;;;;;;;6.00;2.72;;;15.90;99.90;;;;;;4919977;29;20052;-84
2022/06/27 01:45:59;;;;;;;11.07;2.95;;;15.90;99.90;;;;;;4935184;29;20035;-84
2022/06/27 01:48:26;;;;;;;6.43;2.92;;;15.90;99.90;;;;;;4934729;29;20444;-84
2022/06/27 01:50:56;;;;;;;5.22;3.05;;;15.90;99.90;;;;;;4933513;29;20083;-85
2022/06/27 01:53:23;;;;;;;7.68;3.08;;;15.90;99.90;;;;;;4934563;29;20477;-85
2022/06/27 01:55:48;;;;;;;8.77;3.50;;;15.90;99.90;;;;;;4934212;29;20555;-84
2022/06/27 01:58:14;;;;;;;6.28;2.97;;;15.80;99.90;;;;;;4934761;29;20034;-84
2022/06/27 02:00:40;;;;;;;7.60;2.92;;;15.80;99.90;;;;;;4934236;29;20059;-84
2022/06/27 02:03:06;;;;;;;8.73;2.75;;;15.80;99.90;;;;;;4934784;29;20094;-85
2022/06/27 02:05:32;;;;;;;5.93;2.78;;;15.90;99.90;;;;;;4934982;29;20036;-84
2022/06/27 02:07:59;;;;;;;7.03;3.17;;;15.90;99.90;;;;;;4933287;29;20082;-85
2022/06/27 02:10:25;;;;;;;4.85;3.00;;;15.80;99.90;;;;;;4932784;29;20099;-84
2022/06/27 02:12:51;;;;;;;4.35;2.70;;;15.90;99.90;;;;;;4933285;29;20496;-85
2022/06/27 02:15:17;;;;;;;7.28;3.30;;;15.90;99.90;;;;;;4934045;29;20102;-85
2022/06/27 02:17:43;;;;;;;5.65;2.83;;;16.00;99.90;;;;;;4934707;29;20103;-85
2022/06/27 02:20:09;;;;;;;6.82;2.88;;;15.90;99.90;;;;;;4934619;29;20115;-85
2022/06/27 02:22:35;;;;;;;7.10;2.80;;;15.90;99.90;;;;;;4934442;29;20162;-85
2022/06/27 02:25:00;;;;;;;10.90;3.13;;;15.90;99.90;;;;;;4935728;29;20538;-85
2022/06/27 02:27:29;;;;;;;7.90;3.25;;;15.90;99.90;;;;;;4937949;29;20027;-85
2022/06/27 02:29:55;;;;;;;8.10;2.90;;;15.90;99.90;;;;;;4934738;29;20488;-85
2022/06/27 02:32:21;;;;;;;5.43;2.97;;;15.90;99.90;;;;;;4919066;29;20055;-85
2022/06/27 02:34:50;;;;;;;5.35;2.55;;;15.90;99.90;;;;;;4932065;29;20404;-85
2022/06/27 02:37:18;;;;;;;6.93;3.22;;;15.90;99.90;;;;;;4938441;29;20511;-85
2022/06/27 02:39:46;;;;;;;5.82;2.88;;;15.90;99.90;;;;;;4937736;29;20473;-85
2022/06/27 02:42:13;;;;;;;7.65;2.97;;;15.90;99.90;;;;;;4938040;29;20020;-85
2022/06/27 02:44:40;;;;;;;10.52;3.25;;;15.90;99.90;;;;;;4938115;29;20031;-85
2022/06/27 02:47:06;;;;;;;6.50;3.47;;;15.90;99.90;;;;;;4937960;29;20024;-85
2022/06/27 02:49:33;;;;;;;10.68;3.42;;;15.90;99.90;;;;;;4937474;29;20404;-85
2022/06/27 02:52:25;;;;;;;5.55;2.92;;;16.00;99.90;;;;;;4937869;29;20042;-85
2022/06/27 02:55:02;;;;;;;5.68;3.00;;;16.00;99.90;;;;;;4918776;29;20040;-84
2022/06/27 02:57:56;;;;;;;8.38;3.15;;;15.90;99.90;;;;;;4919087;29;20028;-84
2022/06/27 03:00:23;;;;;;;5.78;2.92;;;16.00;99.90;;;;;;4934458;29;20046;-85
2022/06/27 03:02:50;;;;;;;5.88;2.80;;;16.00;99.90;;;;;;4936476;29;20028;-84
2022/06/27 03:05:15;;;;;;;4.18;2.38;;;16.00;99.90;;;;;;4937346;29;20039;-84
2022/06/27 03:07:43;;;;;;;7.25;3.17;;;15.90;99.90;;;;;;4936135;29;20027;-84
2022/06/27 03:10:10;;;;;;;4.72;2.83;;;15.90;99.90;;;;;;4936114;29;20051;-84
2022/06/27 03:12:36;;;;;;;6.47;3.08;;;15.90;99.90;;;;;;4937770;29;20028;-84
2022/06/27 03:15:02;;;;;;;6.80;2.67;;;15.80;99.90;;;;;;4936986;29;20034;-85
2022/06/27 03:17:28;;;;;;;5.43;2.90;;;15.70;99.90;;;;;;4937269;29;20384;-84
2022/06/27 03:19:54;;;;;;;4.30;2.80;;;15.70;99.90;;;;;;4936979;29;20031;-84
2022/06/27 03:22:19;;;;;;;6.15;2.20;;;15.70;99.90;;;;;;4935415;29;20040;-85
2022/06/27 03:24:45;;;;;;;3.20;2.03;;;15.70;99.90;;;;;;4937554;29;20040;-84
2022/06/27 03:27:11;;;;;;;3.42;2.17;;;15.80;99.90;;;;;;4937189;29;20440;-84
2022/06/27 03:29:37;;;;;;;4.60;2.00;;;15.70;99.90;;;;;;4937026;29;20031;-84
2022/06/27 03:32:04;;;;;;;3.10;1.70;;;15.80;99.90;;;;;;4936130;29;20027;-85
2022/06/27 03:34:29;;;;;;;5.07;1.95;;;15.80;99.90;;;;;;4935528;29;20516;-85
2022/06/27 03:36:56;;;;;;;2.75;1.80;;;15.80;99.90;;;;;;4936424;29;20019;-85
2022/06/27 03:39:22;;;;;;;3.85;1.80;;;15.80;99.90;;;;;;4936501;29;20035;-84
2022/06/27 03:41:49;;;;;;;6.13;1.92;;;15.80;99.90;;;;;;4936418;29;20120;-83
2022/06/27 03:44:14;;;;;;;2.90;1.52;;;15.80;99.90;;;;;;4935777;29;20135;-84
2022/06/27 03:46:40;;;;;;;2.97;1.60;;;15.80;99.90;;;;;;4935617;29;20555;-84
2022/06/27 03:51:52;;;;;;;3.50;1.77;;;15.80;99.90;;;;;;4936599;29;20444;-85
2022/06/27 03:54:17;;;;;;;2.92;1.63;;;15.80;99.90;;;;;;4936765;29;20396;-85
2022/06/27 03:56:43;;;;;;;6.97;2.00;;;15.70;99.90;;;;;;4936317;29;20036;-84
2022/06/27 03:59:09;;;;;;;7.90;1.85;;;15.50;99.90;;;;;;4935851;29;20412;-84
2022/06/27 04:01:35;;;;;;;3.00;1.70;;;15.70;99.90;;;;;;4936464;29;20031;-84
2022/06/27 04:04:01;;;;;;;4.55;2.25;;;15.70;99.90;;;;;;4936535;29;20473;-85
2022/06/27 04:06:27;;;;;;;5.72;1.88;;;15.70;99.90;;;;;;4935980;29;20074;-85
2022/06/27 04:08:53;;;;;;;3.03;2.00;;;15.70;99.90;;;;;;4936267;29;20451;-85
2022/06/27 04:11:19;;;;;;;3.88;1.92;;;15.70;99.90;;;;;;4936436;29;20515;-86
2022/06/27 04:13:44;;;;;;;3.33;1.30;;;15.80;99.90;;;;;;4934066;29;20500;-84
2022/06/27 04:16:10;;;;;;;4.75;1.50;;;15.70;99.90;;;;;;4934235;29;20028;-82
2022/06/27 04:18:36;;;;;;;3.88;1.67;;;15.70;99.90;;;;;;4934762;29;20087;-81
2022/06/27 04:21:02;;;;;;;4.97;1.70;;;15.80;99.90;;;;;;4935954;29;20019;-81
2022/06/27 04:23:27;;;;;;;5.03;1.45;;;15.80;99.90;;;;;;4926285;29;20036;-88
2022/06/27 04:25:53;;;;;;;2.53;1.38;;;15.80;99.90;;;;;;4917280;29;20040;-81
2022/06/27 04:28:19;;;;;;;2.90;1.50;;;15.70;99.90;;;;;;4917741;29;20092;-81
2022/06/27 04:30:46;;;;;;;3.75;2.13;;;15.80;99.90;;;;;;4934758;29;20035;-82
2022/06/27 04:33:13;;;;;;;3.17;1.60;;;15.70;99.90;;;;;;4935865;29;20104;-82
2022/06/27 04:35:46;;;;;;;3.17;1.40;;;15.80;99.90;;;;;;4935133;29;20032;-73
2022/06/27 04:38:17;;;;;;;4.30;1.83;;;15.80;99.90;;;;;;4935315;29;20051;-82
2022/06/27 04:40:43;;;;;;;6.57;1.70;;;15.80;99.90;;;;;;4934681;29;20034;-84
2022/06/27 04:43:09;;;;;;;6.18;2.45;;;15.80;99.90;;;;;;4933821;29;20034;-75
2022/06/27 04:45:36;;;;;;;4.55;1.90;;;15.80;99.90;;;;;;4933864;29;20028;-85
2022/06/27 04:48:04;;;;;;;3.65;1.90;;;15.80;99.90;;;;;;4924986;29;20067;-82
2022/06/27 06:44:53;;;;;;;10.13;2.20;;;16.00;99.90;;;;;;5696191;23;20560;-83
2022/06/27 06:47:19;;;;;;;6.53;2.35;;;16.00;99.90;;;;;;4952905;28;20046;-86
2022/06/27 06:49:46;;;;;;;8.75;2.20;;;16.10;99.90;;;;;;4952818;28;20034;-85
2022/06/27 06:52:12;;;;;;;7.03;2.13;;;16.00;99.90;;;;;;4948931;28;20059;-83
2022/06/27 06:54:41;;;;;;;10.00;2.35;;;16.00;99.90;;;;;;4949440;28;20082;-82
2022/06/27 06:57:09;;;;;;;8.68;2.80;;;15.90;99.90;;;;;;4952133;28;20019;-82
2022/06/27 06:59:35;;;;;;;7.03;2.08;;;15.90;99.90;;;;;;4952214;29;20025;-82
2022/06/27 07:02:01;;;;;;;10.00;2.35;;;15.90;99.90;;;;;;4953071;28;20448;-82
2022/06/27 07:04:27;;;;;;;5.13;1.48;;;16.00;99.90;;;;;;4944631;28;20098;-82
2022/06/27 07:06:54;;;;;;;5.88;2.15;;;16.00;99.90;;;;;;4952857;28;20027;-82
2022/06/27 07:09:19;;;;;;;5.40;2.00;;;15.80;99.90;;;;;;4950023;28;20024;-82
2022/06/27 07:11:45;;;;;;;7.75;1.88;;;15.90;99.90;;;;;;4955551;28;20034;-83
2022/06/27 07:14:11;;;;;;;6.72;2.40;;;15.80;99.90;;;;;;4953577;29;20135;-83
2022/06/27 07:16:37;;;;;;;5.18;1.70;;;15.80;99.90;;;;;;4956903;28;20027;-81
2022/06/27 07:19:08;;;;;;;12.00;2.00;;;15.90;99.90;;;;;;4954849;28;20070;-83
2022/06/27 07:21:34;;;;;;;10.15;2.38;;;15.80;99.90;;;;;;4947309;28;20027;-83
2022/06/27 07:24:01;;;;;;;12.32;2.67;;;15.80;99.90;;;;;;4953712;28;20380;-83
2022/06/27 07:26:29;;;;;;;10.75;2.50;;;15.80;99.90;;;;;;4956592;28;20074;-83
2022/06/27 07:28:56;;;;;;;8.18;2.40;;;15.80;99.90;;;;;;4954279;28;20023;-83
2022/06/27 07:31:22;;;;;;;5.28;1.58;;;15.80;99.90;;;;;;4954665;28;20027;-82
2022/06/27 07:33:54;;;;;;;5.97;1.75;;;15.80;99.90;;;;;;4956583;28;20109;-82
2022/06/27 07:36:20;;;;;;;5.38;1.70;;;15.70;99.90;;;;;;4953761;28;20426;-82
2022/06/27 07:38:49;;;;;;;5.80;1.85;;;15.70;99.90;;;;;;4956529;28;20030;-82
2022/06/27 07:41:19;;;;;;;10.38;2.42;;;15.70;99.90;;;;;;4954827;28;20086;-83
2022/06/27 07:43:46;;;;;;;11.15;2.42;;;15.70;99.90;;;;;;4950493;28;20027;-82
2022/06/27 07:46:15;;;;;;;7.53;2.20;;;15.70;99.90;;;;;;4949019;28;20051;-82
2022/06/27 07:48:41;;;;;;;10.55;2.47;;;15.70;99.90;;;;;;4952518;28;20034;-82
2022/06/27 07:51:07;;;;;;;5.47;2.10;;;15.70;99.90;;;;;;4954773;28;20035;-83
2022/06/27 07:53:35;;;;;;;9.57;2.47;;;15.70;99.90;;;;;;4953552;28;20035;-83
2022/06/27 07:56:03;;;;;;;7.75;2.72;;;15.70;99.90;;;;;;4946223;28;20030;-82
2022/06/27 07:58:35;;;;;;;11.88;2.58;;;15.70;99.90;;;;;;4946509;28;20095;-83
2022/06/27 08:01:22;;;;;;;;;;;15.70;99.90;;;;;;4956906;28;20086;-82
2022/06/27 08:03:48;;;;;;;8.13;2.20;;;15.70;99.90;;;;;;4954273;28;19910;-82
2022/06/27 08:06:15;;;;;;;9.45;2.92;;;15.60;99.90;;;;;;4954163;28;20027;-82
2022/06/27 08:08:53;;;;;;;15.48;2.78;;;15.70;99.90;;;;;;4954285;28;20094;-82
2022/06/27 08:11:21;;;;;;;7.95;2.28;;;15.70;99.90;;;;;;4951985;28;20451;-83
2022/06/27 08:13:48;;;;;;;8.32;2.00;;;15.70;99.90;;;;;;4953264;28;20035;-83
2022/06/27 08:16:15;;;;;;;9.40;2.33;;;15.70;99.90;;;;;;4955562;28;20035;-83
2022/06/27 08:18:44;;;;;;;8.95;2.35;;;15.70;99.90;;;;;;4958614;28;20023;-82
2022/06/27 08:21:10;;;;;;;6.70;2.58;;;15.70;99.90;;;;;;4962687;28;20062;-82
2022/06/27 08:23:37;;;;;;;9.20;3.05;;;15.70;99.90;;;;;;4954024;28;20038;-82
2022/06/27 08:26:08;;;;;;;7.80;2.38;;;15.80;99.90;;;;;;4968659;28;20430;-82
2022/06/27 08:28:37;;;;;;;8.40;2.60;;;15.80;99.90;;;;;;4958123;28;20074;-82
2022/06/27 08:31:08;;;;;;;6.85;2.85;;;15.80;99.90;;;;;;4959910;28;20545;-83
2022/06/27 08:33:35;;;;;;;12.60;2.88;;;15.80;99.90;;;;;;4964191;28;20027;-82
2022/06/27 08:36:03;;;;;;;10.52;2.70;;;15.80;99.90;;;;;;4955814;28;20090;-82
2022/06/27 08:38:32;;;;;;;9.10;2.53;;;15.80;99.90;;;;;;4956809;28;20030;-83
2022/06/27 08:40:58;;;;;;;9.02;2.97;;;15.90;99.90;;;;;;4953042;28;20114;-82
2022/06/27 08:43:26;;;;;;;10.40;3.05;;;15.90;99.90;;;;;;4955540;28;20035;-83
2022/06/27 08:45:52;;;;;;;13.32;2.95;;;15.90;99.90;;;;;;4949587;28;20140;-82
2022/06/27 08:48:21;;;;;;;8.88;3.25;;;15.80;99.90;;;;;;4950329;28;20027;-82
2022/06/27 08:50:48;;;;;;;8.43;3.35;;;15.90;99.90;;;;;;4959020;28;20027;-81
2022/06/27 08:53:17;;;;;;;16.73;4.60;;;15.90;99.90;;;;;;4953023;28;20046;-82
2022/06/27 08:55:47;;;;;;;10.77;2.95;;;15.90;99.90;;;;;;4953110;28;20031;-82
2022/06/27 08:58:13;;;;;;;14.38;3.15;;;16.00;99.90;;;;;;4953796;28;20023;-82
2022/06/27 09:00:45;;;;;;;11.02;3.90;;;15.90;99.90;;;;;;4955123;28;20031;-82
2022/06/27 09:03:12;;;;;;;11.63;4.78;;;16.00;99.90;;;;;;4951954;28;20030;-82
2022/06/27 09:05:38;;;;;;;15.68;3.28;;;15.90;99.90;;;;;;4953829;29;20046;-82
2022/06/27 09:08:06;;;;;;;12.77;4.05;;;15.80;99.90;;;;;;4939465;28;20106;-82
2022/06/27 09:10:43;;;;;;;11.07;3.45;;;15.80;99.90;;;;;;4954412;28;20499;-82
2022/06/27 09:13:08;;;;;;;14.23;4.65;;;15.80;99.90;;;;;;4954492;28;20082;-82
2022/06/27 09:15:45;;;;;;;17.77;3.50;;;15.90;99.90;;;;;;4954393;28;20039;-82
2022/06/27 09:18:13;;;;;;;11.20;3.63;;;15.90;99.90;;;;;;4954669;28;20102;-82
2022/06/27 09:21:00;;;;;;;12.32;3.22;;;15.90;99.90;;;;;;4954327;28;20027;-82
2022/06/27 09:23:42;;;;;;;13.27;2.95;;;15.90;99.90;;;;;;4953311;28;20027;-82
2022/06/27 09:26:18;;;;;;;8.18;2.60;;;15.90;99.90;;;;;;4953754;28;20054;-82
2022/06/27 09:28:47;;;;;;;9.70;2.70;;;15.90;99.90;;;;;;4954321;28;20028;-82
2022/06/27 09:31:30;;;;;;;9.27;2.60;;;15.90;99.90;;;;;;4954040;29;20188;-82
2022/06/27 09:34:15;;;;;;;13.38;2.95;;;15.80;99.90;;;;;;4953384;28;20434;-84
2022/06/27 09:36:47;;;;;;;9.02;2.65;;;16.00;99.90;;;;;;4952606;28;20676;-84
2022/06/27 09:39:24;;;;;;;17.05;2.75;;;15.90;99.90;;;;;;4954190;28;20030;-81
2022/06/27 09:41:58;;;;;;;9.80;2.88;;;15.90;99.90;;;;;;4948248;28;20162;-81
2022/06/27 09:44:30;;;;;;;10.63;2.80;;;16.00;99.90;;;;;;4944527;28;20050;-82
2022/06/27 09:47:20;;;;;;;9.82;2.85;;;15.90;99.90;;;;;;4945664;29;20129;-82
2022/06/27 09:49:51;;;;;;;14.52;3.10;;;15.90;99.90;;;;;;4948567;29;20040;-82
2022/06/27 09:52:20;;;;;;;10.95;3.22;;;15.90;99.90;;;;;;4952160;28;20031;-82
2022/06/27 09:54:48;;;;;;;12.98;3.40;;;15.90;99.90;;;;;;4953983;28;20027;-82
2022/06/27 09:57:15;;;;;;;9.00;3.22;;;15.90;99.90;;;;;;4958355;28;20097;-82
2022/06/27 09:59:42;;;;;;;12.45;3.65;;;15.80;99.90;;;;;;4949349;28;20411;-82
2022/06/27 10:02:08;;;;;;;7.65;2.70;;;15.70;99.90;;;;;;4952020;28;20507;-82
2022/06/27 10:04:35;;;;;;;11.10;3.00;;;15.80;99.90;;;;;;4949964;29;20094;-81
2022/06/27 10:07:03;;;;;;;16.75;3.60;;;15.80;99.90;;;;;;4953262;28;20051;-82
2022/06/27 10:09:32;;;;;;;10.50;3.55;;;15.70;99.90;;;;;;4955064;28;20033;-82
2022/06/27 10:12:25;;;;;;;12.52;3.47;;;15.90;99.90;;;;;;4946463;28;20015;-81
2022/06/27 10:15:09;;;;;;;14.93;4.03;;;15.90;99.90;;;;;;4943049;29;20031;-81
2022/06/27 10:17:41;;;;;;;13.10;3.65;;;16.00;99.90;;;;;;4952135;28;20028;-82
2022/06/27 10:20:16;;;;;;;11.48;3.75;;;16.00;99.90;;;;;;4951386;28;20023;-83
2022/06/27 10:22:42;;;;;;;13.88;4.05;;;16.00;99.90;;;;;;4944635;28;20569;-82
2022/06/27 10:25:26;;;;;;;16.88;4.82;;;15.80;99.90;;;;;;4943213;29;20035;-82
2022/06/27 10:28:18;;;;;;;10.23;3.80;;;16.00;99.90;;;;;;4949812;28;20031;-82
2022/06/27 10:30:49;;;;;;;12.63;4.03;;;16.00;99.90;;;;;;4944628;28;20036;-81
2022/06/27 10:33:18;;;;;;;16.40;3.78;;;16.10;99.90;;;;;;4945700;29;20031;-82
2022/06/27 10:35:57;;;;;;;10.30;3.35;;;16.00;99.90;;;;;;4945957;29;20043;-81
2022/06/27 10:38:24;;;;;;;14.98;3.95;;;16.10;99.90;;;;;;4951861;28;20028;-80
2022/06/27 10:40:51;;;;;;;9.48;3.55;;;16.20;99.90;;;;;;4956086;28;20039;-81
2022/06/27 10:43:35;;;;;;;7.65;3.28;;;16.20;99.90;;;;;;4952122;28;20553;-85
2022/06/27 10:46:21;;;;;;;12.77;3.30;;;16.30;99.90;;;;;;4942493;29;20055;-83
2022/06/27 10:48:50;;;;;;;7.93;2.92;;;16.30;99.90;;;;;;4955710;29;20027;-83
2022/06/27 10:51:29;;;;;;;15.15;3.47;;;16.20;99.90;;;;;;4950985;28;20094;-83
2022/06/27 10:54:04;;;;;;;7.20;2.67;;;16.20;99.90;;;;;;4947635;29;20019;-82
2022/06/27 10:56:36;;;;;;;12.15;3.28;;;16.40;99.90;;;;;;4947509;29;20032;-87
2022/06/27 10:59:29;;;;;;;9.85;2.40;;;16.30;99.90;;;;;;4950862;28;20482;-83
2022/06/27 11:01:58;;;;;;;9.07;2.15;;;16.40;99.90;;;;;;4952812;29;20565;-83
2022/06/27 11:04:29;;;;;;;13.63;2.90;;;16.40;99.90;;;;;;4947268;29;20487;-83
2022/06/27 11:07:06;;;;;;;7.20;2.10;;;16.50;99.90;;;;;;4950934;28;20038;-83
2022/06/27 11:09:39;;;;;;;12.05;2.47;;;16.60;99.90;;;;;;4958431;28;20031;-83
2022/06/27 11:12:07;;;;;;;11.07;2.75;;;16.70;99.90;;;;;;4951288;29;20035;-83
2022/06/27 11:14:53;;;;;;;9.98;2.40;;;16.70;99.90;;;;;;4954934;28;20122;-83
2022/06/27 11:17:41;;;;;;;11.95;2.30;;;16.70;99.90;;;;;;4952797;28;20035;-83
2022/06/27 11:20:17;;;;;;;8.85;2.80;;;16.60;99.90;;;;;;4950582;29;20502;-83
2022/06/27 11:22:45;;;;;;;7.43;2.50;;;16.60;99.90;;;;;;4952002;29;20019;-83
2022/06/27 11:25:12;;;;;;;13.98;2.97;;;16.50;99.90;;;;;;4950620;28;20066;-83
2022/06/27 11:33:36;;;;;;;14.23;2.95;;;16.70;99.90;;;;;;4954957;29;20086;-82
2022/06/27 11:36:03;;;;;;;17.77;3.22;;;16.70;99.90;;;;;;4943665;29;20059;-83
2022/06/27 11:38:39;;;;;;;9.98;3.10;;;16.70;99.90;;;;;;4950292;28;20496;-83
2022/06/27 11:41:11;;;;;;;8.32;3.03;;;16.80;99.90;;;;;;4952801;28;20484;-82
2022/06/27 11:43:49;;;;;;;15.05;2.92;;;16.70;99.90;;;;;;4965178;28;20102;-83
2022/06/27 11:46:28;;;;;;;10.00;2.40;;;16.70;99.90;;;;;;4945803;29;20055;-83
2022/06/27 11:49:09;;;;;;;14.15;3.17;;;16.70;99.90;;;;;;4950674;28;20026;-83
2022/06/27 11:51:37;;;;;;;10.98;3.20;;;16.70;99.90;;;;;;4952428;28;20027;-83
2022/06/27 11:54:06;;;;;;;7.22;2.80;;;16.70;99.90;;;;;;4951229;28;20023;-83
2022/06/27 11:56:35;;;;;;;11.23;2.80;;;16.60;99.90;;;;;;4940377;29;20015;-83
2022/06/27 11:59:03;;;;;;;15.57;2.75;;;16.60;99.90;;;;;;4951953;28;20070;-83
2022/06/27 12:01:29;;;;;;;13.35;2.60;;;16.50;99.90;;;;;;4955272;28;20497;-83
2022/06/27 12:04:15;;;;;;;8.05;2.70;;;16.50;99.90;;;;;;4950739;28;20099;-82
2022/06/27 12:06:52;;;;;;;10.93;2.88;;;16.50;99.90;;;;;;4954006;28;20042;-83
2022/06/27 12:09:19;;;;;;;11.15;3.67;;;16.60;99.90;;;;;;4953714;28;20609;-83
2022/06/27 12:11:53;;;;;;;8.48;2.47;;;16.60;99.90;;;;;;4945630;28;20035;-83
2022/06/27 12:14:21;;;;;;;10.02;3.08;;;16.50;99.90;;;;;;4952386;28;20110;-83
2022/06/27 12:16:58;;;;;;;11.68;2.55;;;16.60;99.90;;;;;;4943194;29;20036;-83
2022/06/27 12:19:28;;;;;;;14.13;2.90;;;16.60;99.90;;;;;;4952258;28;20035;-83
2022/06/27 12:21:54;;;;;;;11.35;3.03;;;16.60;99.90;;;;;;4953720;28;20382;-83
2022/06/27 12:24:21;;;;;;;14.10;2.85;;;16.70;99.90;;;;;;4957165;28;20106;-83
2022/06/27 12:26:47;;;;;;;10.75;2.83;;;16.70;99.90;;;;;;4951048;28;20026;-83
2022/06/27 12:29:13;;;;;;;18.05;3.33;;;16.60;99.90;;;;;;4948939;28;20031;-83
2022/06/27 12:31:40;;;;;;;9.30;2.83;;;16.70;99.90;;;;;;4960073;28;20032;-83
2022/06/27 12:34:06;;;;;;;12.45;3.15;;;16.80;99.90;;;;;;4946907;28;20739;-83
2022/06/27 12:36:32;;;;;;;9.25;2.40;;;16.70;99.90;;;;;;4941650;29;20058;-83
2022/06/27 12:39:00;;;;;;;13.65;2.83;;;16.60;99.90;;;;;;4946460;28;20206;-83
2022/06/27 12:41:26;;;;;;;9.15;2.45;;;16.50;99.90;;;;;;4945946;28;20019;-83
2022/06/27 12:43:52;;;;;;;10.73;2.47;;;16.40;99.90;;;;;;4943919;28;20052;-84
2022/06/27 12:46:18;;;;;;;10.43;2.35;;;16.50;99.90;;;;;;4949171;28;20066;-82
2022/06/27 12:48:45;;;;;;;12.57;2.28;;;16.60;99.90;;;;;;4945726;29;20058;-83
2022/06/27 12:51:10;;;;;;;9.13;2.70;;;16.60;99.90;;;;;;4944747;29;20027;-83
2022/06/27 12:53:37;;;;;;;6.75;2.42;;;16.70;99.90;;;;;;4955882;28;20034;-83
2022/06/27 12:56:03;;;;;;;7.05;2.70;;;16.70;99.90;;;;;;4946044;28;20034;-82
2022/06/27 12:58:30;;;;;;;6.63;2.10;;;16.70;99.90;;;;;;4947389;28;20400;-83
2022/06/27 13:00:56;;;;;;;11.23;2.50;;;16.60;99.90;;;;;;4951646;28;20023;-82
2022/06/27 13:03:21;;;;;;;12.50;2.55;;;16.60;99.90;;;;;;4937630;29;20024;-82
2022/06/27 13:05:47;;;;;;;8.40;2.40;;;16.30;99.90;;;;;;4946911;28;20047;-83
2022/06/27 13:08:13;;;;;;;9.02;2.78;;;16.40;99.90;;;;;;4955850;28;20039;-83
2022/06/27 13:10:39;;;;;;;8.30;2.25;;;16.40;99.90;;;;;;4939232;28;20031;-83
2022/06/27 13:13:05;;;;;;;10.07;2.40;;;16.50;99.90;;;;;;4953989;28;20027;-83
2022/06/27 13:15:34;;;;;;;7.78;2.17;;;16.50;99.90;;;;;;4948143;28;20126;-83
2022/06/27 13:18:09;;;;;;;16.42;3.13;;;16.60;99.90;;;;;;4956784;28;20023;-83
2022/06/27 13:20:35;;;;;;;13.10;2.35;;;16.60;99.90;;;;;;4950489;28;20027;-83
2022/06/27 13:23:01;;;;;;;9.73;2.65;;;16.60;99.90;;;;;;4945387;28;20546;-83
2022/06/27 13:25:27;;;;;;;8.45;2.33;;;16.50;99.90;;;;;;4939286;28;20114;-83
2022/06/27 13:27:53;;;;;;;9.45;3.10;;;16.70;99.90;;;;;;4947920;28;20034;-83
2022/06/27 13:30:19;;;;;;;10.27;2.70;;;16.70;99.90;;;;;;4943079;28;20556;-83
2022/06/27 13:32:45;;;;;;;8.35;2.40;;;16.50;99.90;;;;;;4945983;28;20458;-83
2022/06/27 13:35:11;;;;;;;12.68;3.28;;;16.60;99.90;;;;;;4955856;28;20123;-83
2022/06/27 13:37:39;;;;;;;7.47;2.33;;;16.60;99.90;;;;;;4940037;28;20047;-83
2022/06/27 13:40:06;;;;;;;11.60;2.78;;;16.70;99.90;;;;;;4943295;29;20012;-83
2022/06/27 13:42:33;;;;;;;7.78;2.45;;;16.70;99.90;;;;;;4949452;29;20027;-83
2022/06/27 13:45:00;;;;;;;8.10;2.88;;;16.70;99.90;;;;;;4954673;28;20034;-83
2022/06/27 13:47:26;;;;;;;8.73;2.33;;;16.80;99.90;;;;;;4956175;28;20042;-83
2022/06/27 13:49:52;;;;;;;7.95;2.60;;;16.80;99.90;;;;;;4941851;29;20020;-84
2022/06/27 13:52:18;;;;;;;9.93;3.42;;;16.80;99.90;;;;;;4953378;28;20034;-83
2022/06/27 13:54:44;;;;;;;13.77;3.28;;;16.70;99.90;;;;;;4945233;28;20082;-83
2022/06/27 13:57:10;;;;;;;6.35;2.55;;;16.70;99.90;;;;;;4957447;28;20023;-84
2022/06/27 13:59:36;;;;;;;10.43;3.10;;;16.80;99.90;;;;;;4953026;28;20023;-83
2022/06/27 14:02:03;;;;;;;8.43;3.00;;;16.80;99.90;;;;;;4948372;28;20412;-83
2022/06/27 14:04:29;;;;;;;11.05;3.13;;;16.90;99.90;;;;;;4948683;28;20020;-83
2022/06/27 14:09:40;;;;;;;11.18;2.80;;;16.80;99.90;;;;;;4945298;29;20058;-83
2022/06/27 14:12:06;;;;;;;10.98;3.10;;;16.90;99.90;;;;;;4954302;28;20106;-83
2022/06/27 14:14:32;;;;;;;18.58;4.60;;;16.70;99.90;;;;;;4946550;28;20050;-84
2022/06/27 14:16:58;;;;;;;8.77;3.70;;;16.60;99.90;;;;;;4943890;28;20027;-83
2022/06/27 14:19:24;;;;;;;15.52;3.92;;;16.70;99.90;;;;;;4948054;28;20491;-83
2022/06/27 14:21:50;;;;;;;6.32;2.10;;;17.00;99.90;;;;;;4953194;29;20026;-83
2022/06/27 14:24:16;;;;;;;18.90;2.65;;;17.00;99.90;;;;;;4947426;29;20031;-84
2022/06/27 14:26:42;;;;;;;8.98;2.72;;;17.10;99.90;;;;;;4954905;28;20058;-83
2022/06/27 14:29:08;;;;;;;13.50;2.97;;;17.10;99.90;;;;;;4948493;28;20055;-83
2022/06/27 14:31:34;;;;;;;6.63;2.25;;;17.00;99.90;;;;;;4946138;29;20563;-83
2022/06/27 14:34:00;;;;;;;11.23;2.80;;;16.80;99.90;;;;;;4959019;28;20452;-83
2022/06/27 14:36:26;;;;;;;10.43;2.60;;;16.90;99.90;;;;;;4959595;28;20026;-83
2022/06/27 14:38:53;;;;;;;12.13;2.63;;;16.80;99.90;;;;;;4953558;28;20066;-83
2022/06/27 14:41:19;;;;;;;7.93;2.33;;;16.90;99.90;;;;;;4956610;28;20098;-83
2022/06/27 14:43:45;;;;;;;9.20;2.60;;;17.00;99.90;;;;;;4954431;28;20090;-84
2022/06/27 14:46:10;;;;;;;10.65;2.00;;;16.70;99.90;;;;;;4956876;28;20062;-84
2022/06/27 14:48:36;;;;;;;6.72;2.65;;;16.60;99.90;;;;;;4956295;28;20039;-84
2022/06/27 14:51:02;;;;;;;11.73;2.28;;;16.80;99.90;;;;;;4956809;28;20399;-84
2022/06/27 14:53:28;;;;;;;12.70;2.42;;;16.70;99.90;;;;;;4957283;28;20055;-84
2022/06/27 14:55:54;;;;;;;12.88;2.83;;;16.60;99.90;;;;;;4968720;28;20039;-84